createdAt,value
2017-03-23T00:01:16.638Z,74.51
2017-03-23T00:02:38.436Z,74.41
2017-03-23T00:04:00.956Z,74.79
2017-03-23T00:05:22.893Z,74.32
2017-03-23T00:06:45.681Z,73.94
2017-03-23T00:08:07.837Z,74.6
2017-03-23T00:09:30.294Z,73.94
2017-03-23T00:10:52.196Z,74.32
2017-03-23T00:12:14.635Z,74.69
2017-03-23T00:13:36.753Z,74.51
2017-03-23T00:14:58.891Z,74.41
2017-03-23T00:16:21.037Z,74.79
2017-03-23T00:17:43.565Z,75.17
2017-03-23T00:19:05.065Z,74.95
2017-03-23T00:20:27.287Z,75.23
2017-03-23T00:21:48.807Z,75.32
2017-03-23T00:23:10.664Z,75.13
2017-03-23T00:24:32.587Z,75.26
2017-03-23T00:25:54.710Z,75.64
2017-03-23T00:27:16.942Z,75.42
2017-03-23T00:28:38.992Z,75.32
2017-03-23T00:30:01.123Z,75.32
2017-03-23T00:31:22.650Z,74.56
2017-03-23T00:32:44.774Z,75.45
2017-03-23T00:34:06.863Z,74.95
2017-03-23T00:35:28.342Z,74.95
2017-03-23T00:36:50.479Z,75.13
2017-03-23T00:38:12.616Z,75.23
2017-03-23T00:39:34.755Z,75.13
2017-03-23T00:40:56.877Z,74.66
2017-03-23T00:42:18.392Z,75.13
2017-03-23T00:43:40.608Z,75.13
2017-03-23T00:45:03.343Z,75.32
2017-03-23T00:46:25.477Z,74.95
2017-03-23T00:47:47.274Z,75.23
2017-03-23T00:49:09.477Z,75.32
2017-03-23T00:50:31.700Z,75.23
2017-03-23T00:51:53.815Z,75.42
2017-03-23T00:53:15.306Z,75.32
2017-03-23T00:54:37.736Z,75.7
2017-03-23T00:56:00.088Z,75.98
2017-03-23T00:57:22.206Z,75.32
2017-03-23T00:58:43.709Z,76.08
2017-03-23T01:00:05.849Z,76.27
2017-03-23T01:01:28.064Z,76.27
2017-03-23T01:02:50.167Z,76.27
2017-03-23T01:04:12.793Z,76.93
2017-03-23T01:05:34.299Z,76.93
2017-03-23T01:06:56.690Z,76.93
2017-03-23T01:08:18.188Z,76.08
2017-03-23T01:09:39.686Z,75.7
2017-03-23T01:11:01.514Z,75.79
2017-03-23T01:12:24.554Z,75.79
2017-03-23T01:13:46.695Z,75.64
2017-03-23T01:15:08.630Z,75.84
2017-03-23T01:16:30.428Z,75.36
2017-03-23T01:17:53.135Z,74.88
2017-03-23T01:19:15.351Z,75.07
2017-03-23T01:20:37.467Z,75.07
2017-03-23T01:21:58.965Z,75.36
2017-03-23T01:23:21.823Z,75.07
2017-03-23T01:24:43.954Z,75.26
2017-03-23T01:26:06.057Z,75.45
2017-03-23T01:27:28.271Z,75.36
2017-03-23T01:28:50.367Z,75.74
2017-03-23T01:30:12.542Z,75.7
2017-03-23T01:31:34.141Z,76.08
2017-03-23T01:32:56.283Z,75.6
2017-03-23T01:34:18.631Z,75.98
2017-03-23T01:35:40.763Z,75.98
2017-03-23T01:37:03.005Z,76.27
2017-03-23T01:38:25.148Z,76.08
2017-03-23T01:39:47.569Z,76.08
2017-03-23T01:41:09.064Z,75.98
2017-03-23T01:42:31.626Z,76.84
2017-03-23T01:43:54.087Z,76.93
2017-03-23T01:45:16.538Z,76.36
2017-03-23T01:46:38.654Z,76.93
2017-03-23T01:48:00.825Z,76.65
2017-03-23T01:49:22.615Z,76.74
2017-03-23T01:50:45.006Z,76.46
2017-03-23T01:52:07.458Z,76.65
2017-03-23T01:53:29.616Z,77.03
2017-03-23T01:54:52.036Z,77.03
2017-03-23T01:56:14.189Z,77.4
2017-03-23T01:57:35.711Z,77.4
2017-03-23T01:58:57.821Z,77.4
2017-03-23T02:00:19.624Z,77.69
2017-03-23T02:01:42.046Z,77.59
2017-03-23T02:03:04.199Z,77.12
2017-03-23T02:04:25.987Z,77.22
2017-03-23T02:05:47.837Z,77.59
2017-03-23T02:07:09.916Z,77.22
2017-03-23T02:08:31.733Z,77.78
2017-03-23T02:09:53.535Z,77.73
2017-03-23T02:11:15.016Z,77.78
2017-03-23T02:12:37.396Z,77.69
2017-03-23T02:13:59.533Z,77.69
2017-03-23T02:15:21.783Z,77.88
2017-03-23T02:16:44.149Z,78.16
2017-03-23T02:18:06.677Z,78.35
2017-03-23T02:19:28.492Z,78.54
2017-03-23T02:20:49.994Z,78.83
2017-03-23T02:22:12.415Z,79.11
2017-03-23T02:23:34.827Z,79.49
2017-03-23T02:24:56.308Z,79.58
2017-03-23T02:26:18.748Z,80.06
2017-03-23T02:27:41.172Z,80.34
2017-03-23T02:29:02.935Z,80.06
2017-03-23T02:30:24.886Z,79.96
2017-03-23T02:31:47.459Z,80.15
2017-03-23T02:33:09.755Z,80.15
2017-03-23T02:34:31.814Z,80.25
2017-03-23T02:35:53.669Z,79.87
2017-03-23T02:37:15.755Z,80.15
2017-03-23T02:38:36.944Z,80.72
2017-03-23T02:39:59.003Z,80.44
2017-03-23T02:41:21.165Z,80.63
2017-03-23T02:42:43.285Z,79.96
2017-03-23T02:44:05.725Z,79.87
2017-03-23T02:45:27.665Z,79.39
2017-03-23T02:46:49.466Z,79.77
2017-03-23T02:48:10.965Z,80.34
2017-03-23T02:49:33.485Z,79.87
2017-03-23T02:50:55.985Z,80.15
2017-03-23T02:52:18.559Z,80.15
2017-03-23T02:53:40.683Z,79.68
2017-03-23T02:55:02.545Z,80.06
2017-03-23T02:56:25.349Z,79.21
2017-03-23T02:57:47.467Z,79.39
2017-03-23T02:59:09.258Z,79.39
2017-03-23T03:00:31.415Z,79.49
2017-03-23T03:01:54.187Z,79.68
2017-03-23T03:03:16.361Z,79.68
2017-03-23T03:04:37.855Z,79.58
2017-03-23T03:05:59.750Z,79.87
2017-03-23T03:07:22.240Z,79.58
2017-03-23T03:08:44.114Z,79.77
2017-03-23T03:10:06.522Z,79.87
2017-03-23T03:11:28.027Z,79.77
2017-03-23T03:12:50.724Z,79.58
2017-03-23T03:14:12.847Z,80.34
2017-03-23T03:15:34.954Z,79.77
2017-03-23T03:16:57.445Z,79.96
2017-03-23T03:18:20.048Z,80.34
2017-03-23T03:19:42.225Z,80.53
2017-03-23T03:21:04.021Z,80.63
2017-03-23T03:22:26.515Z,80.91
2017-03-23T03:23:48.728Z,80.82
2017-03-23T03:25:10.214Z,80.91
2017-03-23T03:26:32.687Z,81.2
2017-03-23T03:27:54.513Z,81.29
2017-03-23T03:29:16.958Z,81.29
2017-03-23T03:30:39.406Z,81.29
2017-03-23T03:32:01.893Z,81.29
2017-03-23T03:33:23.696Z,81.48
2017-03-23T03:34:46.182Z,80.63
2017-03-23T03:36:08.611Z,79.87
2017-03-23T03:37:29.792Z,79.21
2017-03-23T03:38:51.670Z,79.49
2017-03-23T03:40:14.238Z,78.83
2017-03-23T03:41:36.803Z,78.92
2017-03-23T03:42:58.075Z,78.64
2017-03-23T03:44:20.182Z,79.02
2017-03-23T03:45:42.986Z,78.73
2017-03-23T03:47:04.788Z,78.54
2017-03-23T03:48:26.607Z,78.35
2017-03-23T03:49:48.839Z,77.83
2017-03-23T03:51:11.324Z,77.64
2017-03-23T03:52:33.455Z,77.25
2017-03-23T03:53:55.575Z,77.06
2017-03-23T03:55:17.444Z,76.5
2017-03-23T03:56:39.520Z,76.97
2017-03-23T03:58:01.465Z,76.5
2017-03-23T03:59:23.888Z,76.31
2017-03-23T04:00:45.720Z,75.74
2017-03-23T04:02:08.234Z,76.03
2017-03-23T04:03:30.840Z,75.64
2017-03-23T04:04:52.994Z,75.93
2017-03-23T04:06:14.855Z,75.64
2017-03-23T04:07:36.321Z,75.45
2017-03-23T04:08:58.444Z,74.98
2017-03-23T04:10:20.673Z,75.45
2017-03-23T04:11:42.495Z,75.26
2017-03-23T04:13:04.956Z,75.93
2017-03-23T04:14:27.111Z,75.36
2017-03-23T04:15:48.605Z,75.45
2017-03-23T04:17:10.717Z,75.45
2017-03-23T04:18:32.808Z,75.74
2017-03-23T04:19:54.614Z,75.17
2017-03-23T04:21:17.107Z,75.36
2017-03-23T04:22:38.919Z,75.17
2017-03-23T04:24:01.542Z,75.45
2017-03-23T04:25:23.353Z,75.93
2017-03-23T04:26:45.746Z,74.88
2017-03-23T04:28:08.014Z,75.07
2017-03-23T04:29:30.464Z,74.73
2017-03-23T04:30:52.277Z,74.92
2017-03-23T04:32:14.230Z,74.64
2017-03-23T04:33:36.360Z,74.64
2017-03-23T04:34:58.498Z,74.83
2017-03-23T04:36:20.028Z,74.45
2017-03-23T04:37:41.206Z,74.35
2017-03-23T04:39:03.354Z,75.11
2017-03-23T04:40:25.765Z,75.02
2017-03-23T04:41:47.914Z,74.64
2017-03-23T04:43:10.145Z,74.92
2017-03-23T04:44:32.045Z,74.92
2017-03-23T04:45:53.877Z,75.31
2017-03-23T04:47:15.732Z,75.11
2017-03-23T04:48:37.532Z,75.4
2017-03-23T04:49:59.653Z,75.31
2017-03-23T04:51:21.800Z,75.4
2017-03-23T04:52:44.124Z,75.4
2017-03-23T04:54:06.650Z,75.49
2017-03-23T04:55:28.460Z,75.4
2017-03-23T04:56:50.939Z,75.49
2017-03-23T04:58:13.075Z,75.49
2017-03-23T04:59:35.300Z,75.31
2017-03-23T05:00:57.505Z,75.59
2017-03-23T05:02:19.956Z,75.31
2017-03-23T05:03:42.075Z,75.4
2017-03-23T05:05:04.183Z,75.4
2017-03-23T05:06:26.049Z,75.21
2017-03-23T05:07:48.421Z,75.11
2017-03-23T05:09:10.233Z,74.83
2017-03-23T05:10:32.047Z,74.92
2017-03-23T05:11:53.587Z,74.64
2017-03-23T05:13:16.069Z,73.79
2017-03-23T05:14:37.889Z,73.88
2017-03-23T05:16:00.416Z,74.54
2017-03-23T05:17:22.544Z,73.97
2017-03-23T05:18:44.655Z,73.88
2017-03-23T05:20:06.483Z,73.79
2017-03-23T05:21:28.033Z,73.79
2017-03-23T05:22:50.132Z,73.88
2017-03-23T05:24:12.962Z,73.97
2017-03-23T05:25:35.091Z,73.88
2017-03-23T05:26:57.745Z,73.69
2017-03-23T05:28:19.862Z,73.88
2017-03-23T05:29:42.245Z,73.97
2017-03-23T05:31:04.696Z,73.69
2017-03-23T05:32:26.875Z,73.69
2017-03-23T05:33:48.690Z,73.97
2017-03-23T05:35:11.399Z,74.16
2017-03-23T05:36:32.899Z,73.41
2017-03-23T05:37:55.077Z,73.88
2017-03-23T05:39:17.619Z,73.88
2017-03-23T05:40:39.994Z,73.79
2017-03-23T05:42:02.448Z,73.69
2017-03-23T05:43:24.607Z,73.69
2017-03-23T05:44:47.226Z,73.69
2017-03-23T05:46:09.344Z,73.69
2017-03-23T05:47:31.465Z,73.6
2017-03-23T05:48:53.662Z,73.6
2017-03-23T05:50:16.124Z,73.16
2017-03-23T05:51:38.821Z,72.97
2017-03-23T05:53:01.017Z,72.59
2017-03-23T05:54:23.154Z,72.97
2017-03-23T05:55:44.962Z,72.68
2017-03-23T05:57:07.855Z,72.11
2017-03-23T05:58:29.682Z,72.49
2017-03-23T05:59:51.286Z,72.4
2017-03-23T06:01:13.281Z,72.4
2017-03-23T06:02:36.085Z,72.21
2017-03-23T06:03:58.535Z,72.3
2017-03-23T06:05:20.976Z,72.21
2017-03-23T06:06:43.192Z,72.02
2017-03-23T06:08:05.602Z,72.3
2017-03-23T06:09:27.838Z,71.45
2017-03-23T06:10:49.656Z,71.17
2017-03-23T06:12:11.507Z,71.92
2017-03-23T06:13:34.215Z,71.45
2017-03-23T06:14:56.487Z,71.45
2017-03-23T06:16:18.954Z,71.07
2017-03-23T06:17:41.705Z,71.64
2017-03-23T06:19:03.838Z,71.55
2017-03-23T06:20:25.954Z,71.92
2017-03-23T06:21:48.077Z,71.83
2017-03-23T06:23:09.934Z,71.36
2017-03-23T06:24:32.347Z,71.3
2017-03-23T06:25:54.546Z,70.92
2017-03-23T06:27:17.195Z,71.11
2017-03-23T06:28:39.045Z,70.63
2017-03-23T06:30:01.114Z,70.44
2017-03-23T06:31:23.273Z,70.54
2017-03-23T06:32:45.103Z,71.11
2017-03-23T06:34:07.761Z,70.82
2017-03-23T06:35:30.207Z,71.67
2017-03-23T06:36:52.391Z,71.67
2017-03-23T06:38:14.853Z,71.58
2017-03-23T06:39:36.986Z,71.48
2017-03-23T06:40:59.831Z,71.58
2017-03-23T06:42:21.971Z,71.2
2017-03-23T06:43:44.172Z,70.35
2017-03-23T06:45:06.040Z,70.54
2017-03-23T06:46:28.456Z,70.35
2017-03-23T06:47:49.974Z,69.87
2017-03-23T06:49:12.178Z,69.78
2017-03-23T06:50:34.005Z,69.71
2017-03-23T06:51:56.953Z,69.34
2017-03-23T06:53:19.085Z,68.58
2017-03-23T06:54:41.572Z,68.77
2017-03-23T06:56:04.059Z,68.19
2017-03-23T06:57:26.515Z,67.72
2017-03-23T06:58:48.026Z,67.72
2017-03-23T07:00:09.852Z,66.33
2017-03-23T07:01:32.413Z,64.34
2017-03-23T07:02:54.835Z,61.35
2017-03-23T07:04:16.999Z,60.34
2017-03-23T07:05:39.161Z,60.53
2017-03-23T07:07:01.335Z,61.16
2017-03-23T07:08:23.536Z,61.9
2017-03-23T07:09:45.351Z,62.75
2017-03-23T07:11:07.816Z,63.51
2017-03-23T07:12:28.997Z,64.08
2017-03-23T07:13:51.067Z,64.94
2017-03-23T07:15:12.883Z,65.22
2017-03-23T07:16:34.867Z,65.95
2017-03-23T07:17:57.071Z,67.38
2017-03-23T07:19:19.471Z,67.76
2017-03-23T07:20:41.973Z,67.34
2017-03-23T07:22:04.194Z,68.01
2017-03-23T07:23:26.684Z,67.53
2017-03-23T07:24:49.136Z,67.47
2017-03-23T07:26:11.587Z,67.94
2017-03-23T07:27:33.161Z,67.85
2017-03-23T07:28:55.389Z,68.13
2017-03-23T07:30:17.972Z,67.57
2017-03-23T07:31:40.358Z,67.94
2017-03-23T07:33:02.170Z,68.42
2017-03-23T07:34:24.456Z,68.42
2017-03-23T07:35:47.075Z,68.13
2017-03-23T07:37:09.546Z,68.13
2017-03-23T07:38:32.021Z,68.48
2017-03-23T07:39:53.832Z,68.96
2017-03-23T07:41:16.271Z,68.86
2017-03-23T07:42:37.795Z,68.96
2017-03-23T07:43:59.609Z,68.86
2017-03-23T07:45:22.086Z,68.9
2017-03-23T07:46:44.715Z,68.61
2017-03-23T07:48:07.417Z,68.42
2017-03-23T07:49:29.865Z,68.04
2017-03-23T07:50:52.012Z,68.42
2017-03-23T07:52:14.110Z,68.23
2017-03-23T07:53:36.305Z,68.42
2017-03-23T07:54:58.518Z,68.04
2017-03-23T07:56:20.669Z,68.13
2017-03-23T07:57:43.125Z,68.52
2017-03-23T07:59:05.265Z,67.66
2017-03-23T08:00:27.806Z,67.85
2017-03-23T08:01:50.355Z,67.94
2017-03-23T08:03:13.040Z,68.42
2017-03-23T08:04:35.294Z,67.94
2017-03-23T08:05:57.137Z,67.47
2017-03-23T08:07:19.621Z,67.6
2017-03-23T08:08:42.360Z,66.74
2017-03-23T08:10:05.014Z,66.46
2017-03-23T08:11:27.463Z,66.55
2017-03-23T08:12:49.597Z,65.7
2017-03-23T08:14:12.053Z,66.46
2017-03-23T08:15:34.205Z,67.13
2017-03-23T08:16:56.052Z,66.84
2017-03-23T08:18:18.187Z,66.46
2017-03-23T08:19:40.904Z,66.27
2017-03-23T08:21:03.186Z,66.68
2017-03-23T08:22:25.160Z,67.32
2017-03-23T08:23:46.684Z,66.59
2017-03-23T08:25:09.223Z,66.02
2017-03-23T08:26:31.034Z,65.83
2017-03-23T08:27:53.167Z,64.5
2017-03-23T08:29:15.316Z,64.5
2017-03-23T08:30:37.741Z,64.31
2017-03-23T08:31:59.924Z,64.78
2017-03-23T08:33:22.494Z,64.4
2017-03-23T08:34:44.626Z,64.53
2017-03-23T08:36:07.068Z,63.86
2017-03-23T08:37:29.296Z,63.39
2017-03-23T08:38:51.777Z,63.67
2017-03-23T08:40:14.013Z,63.48
2017-03-23T08:41:36.497Z,64.34
2017-03-23T08:43:30.986Z,64.72
2017-03-23T08:44:53.066Z,64.15
2017-03-23T08:46:14.566Z,63.76
2017-03-23T08:47:37.027Z,63.67
2017-03-23T08:48:58.943Z,64.81
2017-03-23T08:50:21.079Z,64.62
2017-03-23T08:51:43.563Z,63.96
2017-03-23T08:53:05.926Z,63.67
2017-03-23T08:54:28.063Z,62.94
2017-03-23T08:55:49.987Z,62.85
2017-03-23T08:57:12.126Z,62.18
2017-03-23T08:58:34.598Z,63.13
2017-03-23T08:59:57.124Z,64.43
2017-03-23T09:01:19.236Z,65.77
2017-03-23T09:02:41.371Z,65.1
2017-03-23T09:04:03.804Z,64.34
2017-03-23T09:05:26.308Z,63.42
2017-03-23T09:06:48.763Z,64.28
2017-03-23T09:08:10.594Z,64.53
2017-03-23T09:09:32.644Z,65.48
2017-03-23T09:10:54.097Z,66.05
2017-03-23T09:12:16.532Z,65.54
2017-03-23T09:13:38.885Z,65.67
2017-03-23T09:15:01.000Z,65.95
2017-03-23T09:16:23.178Z,65.77
2017-03-23T09:17:44.692Z,65.77
2017-03-23T09:19:06.839Z,65.1
2017-03-23T09:20:29.528Z,64.9
2017-03-23T09:21:51.386Z,64.9
2017-03-23T09:23:14.467Z,65.38
2017-03-23T09:24:36.266Z,66.02
2017-03-23T09:25:58.718Z,66.78
2017-03-23T09:27:20.894Z,66.43
2017-03-23T09:28:42.726Z,66.05
2017-03-23T09:30:04.863Z,65.86
2017-03-23T09:31:27.651Z,66.53
2017-03-23T09:32:49.854Z,67.35
2017-03-23T09:34:12.587Z,66.91
2017-03-23T09:35:34.720Z,66.53
2017-03-23T09:36:57.497Z,65.67
2017-03-23T09:38:19.649Z,66.05
2017-03-23T09:39:41.500Z,65.29
2017-03-23T09:41:03.331Z,65.38
2017-03-23T09:42:25.397Z,64.56
2017-03-23T09:43:46.593Z,63.99
2017-03-23T09:45:08.925Z,63.04
2017-03-23T09:46:31.359Z,62.4
2017-03-23T09:47:53.196Z,62.75
2017-03-23T09:49:15.003Z,63.6
2017-03-23T09:50:36.852Z,63.7
2017-03-23T09:51:58.995Z,62.85
2017-03-23T09:53:21.439Z,63.17
2017-03-23T09:54:43.555Z,64.56
2017-03-23T09:56:05.726Z,63.99
2017-03-23T09:57:27.880Z,63.89
2017-03-23T09:58:50.621Z,62.59
2017-03-23T10:00:13.075Z,62.12
2017-03-23T10:01:35.256Z,62.97
2017-03-23T10:02:57.424Z,62.21
2017-03-23T10:04:19.956Z,62.4
2017-03-23T10:05:42.303Z,62.49
2017-03-23T10:07:36.416Z,62.88
2017-03-23T10:08:58.868Z,63.13
2017-03-23T10:10:21.464Z,62.97
2017-03-23T10:11:44.070Z,62.88
2017-03-23T10:13:06.574Z,62.21
2017-03-23T10:14:28.656Z,61.83
2017-03-23T10:15:50.795Z,61.83
2017-03-23T10:17:12.663Z,61.73
2017-03-23T10:18:35.136Z,62.12
2017-03-23T10:19:57.574Z,63.73
2017-03-23T10:21:20.087Z,64.47
2017-03-23T10:22:42.723Z,65.13
2017-03-23T10:24:36.954Z,63.99
2017-03-23T10:25:59.721Z,64.08
2017-03-23T10:27:22.327Z,63.89
2017-03-23T10:28:44.515Z,63.6
2017-03-23T10:30:07.378Z,64.5
2017-03-23T10:31:29.877Z,63.7
2017-03-23T10:32:52.307Z,62.88
2017-03-23T10:34:14.774Z,63.07
2017-03-23T10:35:37.161Z,63.6
2017-03-23T10:36:59.304Z,63.73
2017-03-23T10:38:21.758Z,63.6
2017-03-23T10:39:44.226Z,63.6
2017-03-23T10:41:06.666Z,63.92
2017-03-23T10:42:28.814Z,63.73
2017-03-23T10:43:51.274Z,63.73
2017-03-23T10:45:13.113Z,63.07
2017-03-23T10:46:35.967Z,64.69
2017-03-23T10:47:57.809Z,64.87
2017-03-23T10:49:20.272Z,64.12
2017-03-23T10:50:42.787Z,62.88
2017-03-23T10:52:05.178Z,62.24
2017-03-23T10:53:27.315Z,62.15
2017-03-23T10:54:49.187Z,63.67
2017-03-23T10:56:11.667Z,63.07
2017-03-23T10:57:34.040Z,64.02
2017-03-23T10:58:55.758Z,63.67
2017-03-23T11:00:18.299Z,62.81
2017-03-23T11:01:40.499Z,62.15
2017-03-23T11:03:03.295Z,62.15
2017-03-23T11:04:25.464Z,61.96
2017-03-23T11:05:47.292Z,62.52
2017-03-23T11:07:09.227Z,63
2017-03-23T11:08:31.939Z,63.73
2017-03-23T11:09:54.878Z,62.97
2017-03-23T11:11:16.989Z,62.52
2017-03-23T11:13:11.009Z,62.15
2017-03-23T11:14:33.773Z,61.96
2017-03-23T11:15:55.908Z,61.13
2017-03-23T11:17:18.044Z,62.18
2017-03-23T11:18:40.544Z,61.57
2017-03-23T11:20:02.688Z,62.34
2017-03-23T11:21:24.526Z,63.76
2017-03-23T11:22:46.703Z,62.91
2017-03-23T11:24:08.468Z,61.96
2017-03-23T11:25:30.626Z,61.86
2017-03-23T11:26:52.794Z,62.62
2017-03-23T11:28:15.250Z,62.37
2017-03-23T11:29:38.271Z,62.43
2017-03-23T11:31:00.732Z,63.1
2017-03-23T11:32:22.868Z,62.05
2017-03-23T11:33:45.072Z,61.86
2017-03-23T11:35:07.795Z,62.05
2017-03-23T11:36:30.252Z,61.7
2017-03-23T11:37:52.461Z,61.13
2017-03-23T11:39:14.626Z,61.22
2017-03-23T11:40:37.102Z,62.46
2017-03-23T11:41:59.257Z,62.15
2017-03-23T11:43:21.138Z,62.75
2017-03-23T11:44:43.327Z,62.91
2017-03-23T11:46:05.823Z,62.62
2017-03-23T11:47:27.636Z,62.24
2017-03-23T11:48:50.085Z,63.1
2017-03-23T11:50:11.629Z,63.76
2017-03-23T11:51:34.065Z,64.34
2017-03-23T11:52:56.185Z,64.34
2017-03-23T11:54:18.709Z,63.2
2017-03-23T11:55:41.165Z,62.91
2017-03-23T11:57:03.605Z,63.86
2017-03-23T11:58:25.471Z,63.2
2017-03-23T11:59:47.305Z,63.1
2017-03-23T12:01:08.871Z,63.29
2017-03-23T12:02:30.710Z,63.57
2017-03-23T12:03:52.852Z,63.67
2017-03-23T12:05:15.305Z,63.57
2017-03-23T12:06:37.500Z,64.15
2017-03-23T12:07:59.944Z,64.87
2017-03-23T12:09:22.118Z,65.45
2017-03-23T12:10:44.624Z,65.36
2017-03-23T12:12:07.134Z,65.1
2017-03-23T12:13:29.298Z,64.15
2017-03-23T12:14:51.553Z,64.24
2017-03-23T12:16:13.388Z,64.53
2017-03-23T12:17:35.207Z,64.43
2017-03-23T12:18:57.290Z,64.62
2017-03-23T12:20:19.864Z,64.15
2017-03-23T12:21:41.703Z,64.43
2017-03-23T12:23:04.186Z,64.62
2017-03-23T12:24:26.899Z,64.53
2017-03-23T12:25:48.725Z,65.29
2017-03-23T12:27:10.565Z,65.45
2017-03-23T12:28:33.011Z,64.62
2017-03-23T12:29:56.074Z,65.48
2017-03-23T12:31:18.300Z,64.53
2017-03-23T12:32:40.885Z,64.15
2017-03-23T12:34:03.016Z,63.04
2017-03-23T12:35:25.128Z,62.46
2017-03-23T12:36:47.612Z,61.89
2017-03-23T12:38:10.165Z,61.99
2017-03-23T12:39:32.313Z,62.37
2017-03-23T12:40:54.817Z,64.09
2017-03-23T12:42:17.388Z,62.37
2017-03-23T12:43:39.576Z,63.99
2017-03-23T12:45:02.030Z,63.2
2017-03-23T12:46:24.581Z,62.65
2017-03-23T12:47:46.840Z,62.56
2017-03-23T12:49:08.997Z,62.94
2017-03-23T12:50:31.328Z,64.47
2017-03-23T12:51:53.911Z,65.67
2017-03-23T12:53:16.615Z,64.43
2017-03-23T12:54:39.092Z,64.34
2017-03-23T12:56:01.535Z,64.81
2017-03-23T12:57:23.939Z,65.86
2017-03-23T12:58:46.151Z,65.77
2017-03-23T13:00:08.299Z,65.86
2017-03-23T13:01:30.422Z,66.4
2017-03-23T13:02:52.918Z,65.73
2017-03-23T13:04:15.054Z,66.72
2017-03-23T13:05:37.283Z,66.97
2017-03-23T13:06:59.758Z,67.64
2017-03-23T13:08:22.573Z,67.55
2017-03-23T13:09:44.508Z,67.74
2017-03-23T13:11:06.098Z,68.21
2017-03-23T13:12:28.365Z,66.97
2017-03-23T13:13:50.935Z,66.69
2017-03-23T13:15:13.077Z,66.59
2017-03-23T13:16:35.227Z,66.88
2017-03-23T13:17:57.475Z,67.07
2017-03-23T13:19:19.933Z,67.93
2017-03-23T13:20:42.100Z,68.88
2017-03-23T13:22:04.567Z,69.42
2017-03-23T13:23:26.746Z,69.89
2017-03-23T13:24:49.186Z,69.6
2017-03-23T13:26:11.500Z,68.12
2017-03-23T13:27:34.004Z,67.26
2017-03-23T13:28:56.138Z,68.02
2017-03-23T13:30:18.677Z,68.69
2017-03-23T13:31:41.069Z,68.5
2017-03-23T13:33:03.449Z,68.78
2017-03-23T13:34:25.279Z,68.69
2017-03-23T13:35:48.104Z,68.88
2017-03-23T13:37:09.624Z,68.78
2017-03-23T13:38:32.114Z,67.93
2017-03-23T13:39:54.837Z,67.83
2017-03-23T13:41:17.273Z,67.45
2017-03-23T13:42:39.515Z,68.12
2017-03-23T13:44:01.666Z,67.83
2017-03-23T13:45:23.498Z,68.59
2017-03-23T13:46:45.594Z,68.78
2017-03-23T13:48:07.126Z,68.21
2017-03-23T13:49:29.637Z,68.78
2017-03-23T13:50:52.099Z,69.35
2017-03-23T13:52:15.003Z,69.35
2017-03-23T13:53:37.140Z,68.88
2017-03-23T13:54:59.405Z,68.5
2017-03-23T13:56:21.935Z,68.63
2017-03-23T13:57:44.364Z,68.59
2017-03-23T13:59:06.516Z,68.21
2017-03-23T14:00:28.792Z,68.69
2017-03-23T14:01:50.657Z,69.07
2017-03-23T14:03:13.424Z,69.45
2017-03-23T14:04:35.252Z,70.02
2017-03-23T14:05:57.396Z,71.13
2017-03-23T14:07:19.239Z,70.94
2017-03-23T14:08:41.875Z,71.22
2017-03-23T14:10:04.323Z,70.69
2017-03-23T14:11:26.466Z,71.61
2017-03-23T14:12:49.070Z,70.94
2017-03-23T14:14:11.816Z,70.75
2017-03-23T14:15:34.257Z,71.98
2017-03-23T14:16:56.850Z,71.7
2017-03-23T14:18:19.476Z,71.03
2017-03-23T14:19:42.277Z,70.94
2017-03-23T14:21:04.815Z,70.75
2017-03-23T14:22:27.187Z,71.51
2017-03-23T14:23:49.603Z,72.17
2017-03-23T14:25:12.325Z,71.89
2017-03-23T14:26:34.507Z,71.13
2017-03-23T14:27:56.966Z,70.56
2017-03-23T14:29:19.124Z,70.08
2017-03-23T14:30:41.520Z,70.65
2017-03-23T14:32:04.221Z,70.47
2017-03-23T14:33:26.710Z,70.69
2017-03-23T14:34:48.852Z,70.75
2017-03-23T14:36:11.630Z,71.13
2017-03-23T14:37:34.077Z,70.65
2017-03-23T14:38:56.639Z,71.03
2017-03-23T14:40:18.456Z,71.98
2017-03-23T14:41:40.569Z,71.42
2017-03-23T14:43:03.063Z,71.42
2017-03-23T14:44:24.916Z,71.98
2017-03-23T14:45:47.476Z,71.89
2017-03-23T14:47:09.193Z,70.65
2017-03-23T14:48:31.678Z,71.03
2017-03-23T14:49:54.263Z,71.03
2017-03-23T14:51:16.427Z,70.56
2017-03-23T14:52:38.820Z,70.08
2017-03-23T14:54:01.059Z,70.27
2017-03-23T14:55:23.508Z,70.56
2017-03-23T14:56:45.020Z,71.7
2017-03-23T14:58:07.856Z,70.75
2017-03-23T14:59:30.448Z,71.13
2017-03-23T15:00:53.059Z,71.7
2017-03-23T15:02:15.340Z,71.13
2017-03-23T15:03:38.130Z,70.75
2017-03-23T15:04:59.883Z,70.27
2017-03-23T15:06:22.412Z,70.18
2017-03-23T15:07:44.591Z,70.18
2017-03-23T15:09:07.045Z,70.12
2017-03-23T15:10:29.527Z,70.21
2017-03-23T15:11:51.988Z,69.83
2017-03-23T15:13:14.167Z,70.12
2017-03-23T15:14:36.780Z,69.74
2017-03-23T15:15:58.690Z,70.27
2017-03-23T15:17:21.189Z,70.59
2017-03-23T15:18:43.656Z,69.89
2017-03-23T15:20:06.464Z,69.99
2017-03-23T15:21:28.600Z,69.7
2017-03-23T15:22:50.446Z,69.79
2017-03-23T15:24:12.942Z,70.56
2017-03-23T15:25:35.395Z,70.18
2017-03-23T15:26:57.525Z,70.27
2017-03-23T15:28:20.028Z,70.94
2017-03-23T15:29:42.503Z,70.84
2017-03-23T15:31:04.993Z,70.56
2017-03-23T15:32:27.148Z,71.13
2017-03-23T15:33:49.653Z,71.32
2017-03-23T15:35:12.116Z,70.75
2017-03-23T15:36:34.568Z,71.22
2017-03-23T15:37:57.061Z,71.95
2017-03-23T15:39:19.527Z,71.47
2017-03-23T15:40:41.796Z,70.75
2017-03-23T15:42:36.331Z,70.72
2017-03-23T15:43:58.807Z,71.09
2017-03-23T15:45:21.029Z,71.67
2017-03-23T15:46:43.565Z,71.67
2017-03-23T15:48:06.329Z,71.61
2017-03-23T15:49:28.532Z,70.65
2017-03-23T15:50:51.007Z,71.61
2017-03-23T15:52:13.718Z,71.61
2017-03-23T15:53:36.554Z,71.67
2017-03-23T15:54:58.807Z,71.13
2017-03-23T15:56:21.526Z,71.67
2017-03-23T15:57:43.666Z,72.33
2017-03-23T15:59:06.058Z,71.95
2017-03-23T16:00:28.525Z,71.86
2017-03-23T16:01:50.740Z,72.24
2017-03-23T16:03:13.230Z,72.42
2017-03-23T16:04:36.107Z,72.14
2017-03-23T16:05:58.739Z,72.62
2017-03-23T16:07:21.206Z,72.62
2017-03-23T16:08:43.372Z,72.24
2017-03-23T16:10:06.156Z,72.71
2017-03-23T16:11:28.367Z,73.28
2017-03-23T16:12:50.521Z,73.19
2017-03-23T16:14:12.766Z,73.1
2017-03-23T16:15:35.323Z,73.1
2017-03-23T16:16:57.484Z,73.19
2017-03-23T16:18:19.665Z,73.28
2017-03-23T16:19:42.225Z,73.57
2017-03-23T16:21:05.247Z,73.66
2017-03-23T16:22:27.734Z,74.04
2017-03-23T16:23:50.232Z,73.38
2017-03-23T16:25:12.998Z,73.57
2017-03-23T16:26:35.409Z,74.04
2017-03-23T16:27:58.121Z,74.14
2017-03-23T16:29:20.621Z,74.14
2017-03-23T16:30:42.833Z,73.95
2017-03-23T16:32:05.585Z,74.52
2017-03-23T16:33:28.079Z,74.14
2017-03-23T16:34:50.628Z,73.85
2017-03-23T16:36:13.292Z,75.05
2017-03-23T16:37:36.181Z,75.15
2017-03-23T16:38:58.362Z,75.34
2017-03-23T16:40:20.848Z,75.05
2017-03-23T16:41:43.019Z,74.9
2017-03-23T16:43:05.843Z,75.15
2017-03-23T16:44:28.008Z,75.24
2017-03-23T16:45:50.284Z,75.34
2017-03-23T16:47:13.748Z,75.62
2017-03-23T16:48:36.187Z,76.01
2017-03-23T16:49:58.664Z,75.91
2017-03-23T16:51:20.833Z,75.62
2017-03-23T16:52:42.990Z,75.62
2017-03-23T16:55:57.321Z,75.72
2017-03-23T16:57:19.192Z,76.57
2017-03-23T16:58:41.719Z,76.1
2017-03-23T17:00:04.245Z,77.15
2017-03-23T17:01:26.819Z,76.01
2017-03-23T17:02:49.326Z,76.1
2017-03-23T17:04:11.818Z,76.2
2017-03-23T17:05:34.639Z,76.57
2017-03-23T17:06:57.174Z,76.96
2017-03-23T17:08:19.638Z,76.67
2017-03-23T17:09:42.275Z,76.76
2017-03-23T17:11:05.063Z,77.05
2017-03-23T17:12:27.546Z,77.05
2017-03-23T17:13:49.776Z,77.15
2017-03-23T17:15:11.974Z,76.96
2017-03-23T17:16:34.476Z,76.39
2017-03-23T17:17:56.726Z,76.76
2017-03-23T17:19:19.301Z,77.15
2017-03-23T17:20:41.469Z,76.63
2017-03-23T17:22:03.945Z,77.68
2017-03-23T17:23:26.442Z,77.2
2017-03-23T17:24:49.065Z,77.39
2017-03-23T17:26:11.573Z,77.34
2017-03-23T17:27:33.727Z,77.39
2017-03-23T17:28:56.475Z,78.16
2017-03-23T17:30:18.965Z,78.63
2017-03-23T17:31:41.553Z,78.34
2017-03-23T17:33:04.070Z,78.63
2017-03-23T17:34:26.278Z,78.91
2017-03-23T17:35:48.818Z,78.63
2017-03-23T17:37:11.137Z,78.34
2017-03-23T17:38:33.496Z,78.25
2017-03-23T17:39:55.680Z,78.91
2017-03-23T17:41:18.525Z,79.01
2017-03-23T17:42:40.684Z,78.82
2017-03-23T17:44:03.221Z,79.3
2017-03-23T17:45:25.853Z,79.3
2017-03-23T17:46:48.017Z,79.49
2017-03-23T17:48:10.167Z,79.01